createdAt,value
2017-12-20T00:00:27.284Z,99.99
2017-12-20T00:01:36.992Z,99.99
2017-12-20T00:02:46.429Z,99.99
2017-12-20T00:03:56.142Z,99.99
2017-12-20T00:05:05.876Z,99.99
2017-12-20T00:06:15.837Z,99.99
2017-12-20T00:07:25.784Z,99.99
2017-12-20T00:08:35.488Z,99.99
2017-12-20T00:09:45.434Z,99.99
2017-12-20T00:10:55.388Z,99.99
2017-12-20T00:12:05.352Z,99.99
2017-12-20T00:13:15.039Z,99.99
2017-12-20T00:14:24.761Z,99.99
2017-12-20T00:15:34.712Z,99.99
2017-12-20T00:16:44.659Z,99.99
2017-12-20T00:17:54.377Z,99.99
2017-12-20T00:19:03.802Z,99.99
2017-12-20T00:20:13.240Z,99.99
2017-12-20T00:21:23.196Z,99.99
2017-12-20T00:22:32.376Z,99.99
2017-12-20T00:23:42.068Z,99.99
2017-12-20T00:24:51.778Z,99.99
2017-12-20T00:26:00.951Z,99.99
2017-12-20T00:27:10.907Z,99.99
2017-12-20T00:28:20.862Z,99.99
2017-12-20T00:29:30.813Z,99.99
2017-12-20T00:30:40.505Z,99.99
2017-12-20T00:31:49.696Z,99.99
2017-12-20T00:32:59.659Z,99.99
2017-12-20T00:34:09.612Z,99.99
2017-12-20T00:35:19.303Z,99.99
2017-12-20T00:36:29.252Z,99.99
2017-12-20T00:37:38.947Z,99.99
2017-12-20T00:38:48.902Z,99.99
2017-12-20T00:39:58.594Z,99.99
2017-12-20T00:41:08.285Z,99.99
2017-12-20T00:42:17.961Z,99.99
2017-12-20T00:43:27.395Z,99.99
2017-12-20T00:44:37.085Z,99.99
2017-12-20T00:45:46.769Z,99.99
2017-12-20T00:46:56.274Z,99.99
2017-12-20T00:48:06.243Z,99.99
2017-12-20T00:49:15.680Z,99.99
2017-12-20T00:50:25.646Z,99.99
2017-12-20T00:51:35.349Z,99.99
2017-12-20T00:52:45.050Z,99.99
2017-12-20T00:53:54.741Z,99.99
2017-12-20T00:55:04.433Z,99.99
2017-12-20T00:56:14.373Z,99.99
2017-12-20T00:57:24.313Z,99.99
2017-12-20T00:58:34.281Z,99.99
2017-12-20T00:59:43.970Z,99.99
2017-12-20T01:00:53.396Z,99.99
2017-12-20T01:02:02.566Z,99.99
2017-12-20T01:03:11.737Z,99.99
2017-12-20T01:04:21.161Z,99.99
2017-12-20T01:05:30.623Z,99.99
2017-12-20T01:06:40.323Z,99.99
2017-12-20T01:07:50.270Z,99.99
2017-12-20T01:09:00.229Z,99.99
2017-12-20T01:10:10.171Z,99.99
2017-12-20T01:11:20.128Z,99.99
2017-12-20T01:12:29.823Z,99.99
2017-12-20T01:13:39.776Z,99.99
2017-12-20T01:14:49.218Z,99.99
2017-12-20T01:15:59.180Z,99.99
2017-12-20T01:17:08.610Z,99.99
2017-12-20T01:18:18.039Z,99.99
2017-12-20T01:19:27.989Z,99.99
2017-12-20T01:20:37.954Z,99.99
2017-12-20T01:21:47.899Z,99.99
2017-12-20T01:22:57.588Z,99.99
2017-12-20T01:24:07.014Z,99.99
2017-12-20T01:25:16.985Z,99.99
2017-12-20T01:26:26.745Z,99.99
2017-12-20T01:27:36.693Z,99.99
2017-12-20T01:28:46.403Z,99.99
2017-12-20T01:29:55.839Z,99.99
2017-12-20T01:31:05.530Z,99.99
2017-12-20T01:32:15.468Z,99.99
2017-12-20T01:33:25.422Z,99.99
2017-12-20T01:34:35.375Z,99.99
2017-12-20T01:35:45.079Z,99.99
2017-12-20T01:36:54.258Z,99.99
2017-12-20T01:38:03.703Z,99.99
2017-12-20T01:39:13.386Z,99.99
2017-12-20T01:40:22.818Z,99.99
2017-12-20T01:41:32.505Z,99.99
2017-12-20T01:42:42.198Z,99.99
2017-12-20T01:43:51.898Z,99.99
2017-12-20T01:45:01.607Z,99.99
2017-12-20T01:46:11.318Z,99.99
2017-12-20T01:47:20.750Z,99.99
2017-12-20T01:48:30.703Z,99.99
2017-12-20T01:49:40.139Z,99.99
2017-12-20T01:50:49.838Z,99.99
2017-12-20T01:51:59.816Z,99.99
2017-12-20T01:53:09.507Z,99.99
2017-12-20T01:54:19.462Z,99.99
2017-12-20T01:55:29.158Z,99.99
2017-12-20T01:56:38.096Z,99.99
2017-12-20T01:57:48.029Z,99.99
2017-12-20T01:58:57.987Z,99.99
2017-12-20T02:00:07.685Z,99.99
2017-12-20T02:01:17.381Z,99.99
2017-12-20T02:02:26.871Z,99.99
2017-12-20T02:03:36.556Z,99.99
2017-12-20T02:04:46.251Z,99.99
2017-12-20T02:05:55.685Z,99.99
2017-12-20T02:07:05.644Z,99.99
2017-12-20T02:08:15.593Z,99.99
2017-12-20T02:09:25.298Z,99.99
2017-12-20T02:10:35.258Z,99.99
2017-12-20T02:11:44.955Z,99.99
2017-12-20T02:12:54.385Z,99.99
2017-12-20T02:14:03.837Z,99.99
2017-12-20T02:15:13.795Z,99.99
2017-12-20T02:16:23.801Z,99.99
2017-12-20T02:17:33.489Z,99.99
2017-12-20T02:18:43.439Z,99.99
2017-12-20T02:19:53.394Z,99.99
2017-12-20T02:21:02.825Z,99.99
2017-12-20T02:22:12.254Z,99.99
2017-12-20T02:23:22.209Z,99.99
2017-12-20T02:24:31.643Z,99.99
2017-12-20T02:25:41.077Z,99.99
2017-12-20T02:26:50.786Z,99.99
2017-12-20T02:28:00.472Z,99.99
2017-12-20T02:29:10.422Z,99.99
2017-12-20T02:30:20.369Z,99.99
2017-12-20T02:31:30.354Z,99.99
2017-12-20T02:32:39.800Z,99.99
2017-12-20T02:33:49.762Z,99.99
2017-12-20T02:34:58.931Z,99.99
2017-12-20T02:36:08.373Z,99.99
2017-12-20T02:37:18.067Z,99.99
2017-12-20T02:38:27.513Z,99.99
2017-12-20T02:39:36.946Z,99.99
2017-12-20T02:40:46.638Z,99.99
2017-12-20T02:41:56.589Z,99.99
2017-12-20T02:43:06.282Z,99.99
2017-12-20T02:44:16.260Z,99.99
2017-12-20T02:45:25.440Z,99.99
2017-12-20T02:46:35.401Z,99.99
2017-12-20T02:47:45.097Z,99.99
2017-12-20T02:48:54.796Z,99.99
2017-12-20T02:50:04.246Z,99.99
2017-12-20T02:51:13.938Z,99.99
2017-12-20T02:52:23.886Z,99.99
2017-12-20T02:53:33.827Z,99.99
2017-12-20T02:54:43.788Z,99.99
2017-12-20T02:55:53.552Z,99.99
2017-12-20T02:57:03.522Z,99.99
2017-12-20T02:58:13.225Z,99.99
2017-12-20T02:59:22.913Z,99.99
2017-12-20T03:00:32.599Z,99.99
2017-12-20T03:01:42.035Z,99.99
2017-12-20T03:02:51.718Z,99.99
2017-12-20T03:04:01.670Z,99.99
2017-12-20T03:05:11.628Z,99.99
2017-12-20T03:06:21.068Z,99.99
2017-12-20T03:07:30.794Z,99.99
2017-12-20T03:08:40.743Z,99.99
2017-12-20T03:09:50.433Z,99.99
2017-12-20T03:11:00.382Z,99.99
2017-12-20T03:12:10.329Z,99.99
2017-12-20T03:13:20.269Z,99.99
2017-12-20T03:14:30.221Z,99.99
2017-12-20T03:15:39.913Z,99.99
2017-12-20T03:16:49.606Z,99.99
2017-12-20T03:17:59.041Z,99.99
2017-12-20T03:19:08.738Z,99.99
2017-12-20T03:20:18.693Z,99.99
2017-12-20T03:21:28.637Z,99.99
2017-12-20T03:22:37.806Z,99.99
2017-12-20T03:23:47.492Z,99.99
2017-12-20T03:24:56.925Z,99.99
2017-12-20T03:26:06.879Z,99.99
2017-12-20T03:27:16.597Z,99.99
2017-12-20T03:28:26.288Z,99.99
2017-12-20T03:29:35.971Z,99.99
2017-12-20T03:30:45.918Z,99.99
2017-12-20T03:31:55.869Z,99.99
2017-12-20T03:33:05.300Z,99.99
2017-12-20T03:34:15.266Z,99.99
2017-12-20T03:35:24.952Z,99.99
2017-12-20T03:36:34.650Z,99.99
2017-12-20T03:37:44.341Z,99.99
2017-12-20T03:38:53.765Z,99.99
2017-12-20T03:40:03.515Z,99.99
2017-12-20T03:41:13.268Z,99.99
2017-12-20T03:42:23.211Z,99.99
2017-12-20T03:43:32.899Z,99.99
2017-12-20T03:44:42.595Z,99.99
2017-12-20T03:45:52.551Z,99.99
2017-12-20T03:47:01.722Z,99.99
2017-12-20T03:48:11.409Z,99.99
2017-12-20T03:49:21.099Z,99.99
2017-12-20T03:50:31.047Z,99.99
2017-12-20T03:51:40.740Z,99.99
2017-12-20T03:52:50.439Z,99.99
2017-12-20T03:54:00.131Z,99.99
2017-12-20T03:55:09.822Z,99.99
2017-12-20T03:56:19.250Z,99.99
2017-12-20T03:57:29.204Z,99.99
2017-12-20T03:58:39.144Z,99.99
2017-12-20T03:59:49.085Z,99.99
2017-12-20T04:00:59.086Z,99.99
2017-12-20T04:02:09.058Z,99.99
2017-12-20T04:03:18.244Z,99.99
2017-12-20T04:04:27.943Z,99.99
2017-12-20T04:05:37.894Z,99.99
2017-12-20T04:06:47.593Z,99.99
2017-12-20T04:07:57.286Z,99.99
2017-12-20T04:09:06.465Z,99.99
2017-12-20T04:10:16.162Z,99.99
2017-12-20T04:11:26.102Z,99.99
2017-12-20T04:12:35.554Z,99.99
2017-12-20T04:13:45.511Z,99.99
2017-12-20T04:14:55.471Z,99.99
2017-12-20T04:16:04.912Z,99.99
2017-12-20T04:17:14.599Z,99.99
2017-12-20T04:18:24.536Z,99.99
2017-12-20T04:19:33.966Z,99.99
2017-12-20T04:20:43.392Z,99.99
2017-12-20T04:21:52.840Z,99.99
2017-12-20T04:23:02.797Z,99.99
2017-12-20T04:24:12.757Z,99.99
2017-12-20T04:25:22.732Z,99.99
2017-12-20T04:26:32.671Z,99.99
2017-12-20T04:27:42.614Z,99.99
2017-12-20T04:28:52.569Z,99.99
2017-12-20T04:30:02.516Z,99.99
2017-12-20T04:31:11.960Z,99.99
2017-12-20T04:32:21.660Z,99.99
2017-12-20T04:33:31.603Z,99.99
2017-12-20T04:34:41.042Z,99.99
2017-12-20T04:35:50.990Z,99.99
2017-12-20T04:37:00.681Z,99.99
2017-12-20T04:38:10.629Z,99.99
2017-12-20T04:39:20.577Z,99.99
2017-12-20T04:40:30.523Z,99.99
2017-12-20T04:41:40.528Z,99.99
2017-12-20T04:42:49.953Z,99.99
2017-12-20T04:43:59.896Z,99.99
2017-12-20T04:45:09.657Z,99.99
2017-12-20T04:46:19.093Z,99.99
2017-12-20T04:47:29.041Z,99.99
2017-12-20T04:48:38.731Z,99.99
2017-12-20T04:49:48.164Z,99.99
2017-12-20T04:50:58.116Z,99.99
2017-12-20T04:52:08.068Z,99.99
2017-12-20T04:53:17.756Z,99.99
2017-12-20T04:54:27.710Z,99.99
2017-12-20T04:55:37.420Z,99.99
2017-12-20T04:56:47.106Z,99.99
2017-12-20T04:57:57.061Z,99.99
2017-12-20T04:59:06.755Z,99.99
2017-12-20T05:00:16.722Z,99.99
2017-12-20T05:01:26.670Z,99.99
2017-12-20T05:02:36.615Z,99.99
2017-12-20T05:03:46.566Z,99.99
2017-12-20T05:04:56.516Z,99.99
2017-12-20T05:06:05.954Z,99.99
2017-12-20T05:07:15.907Z,99.99
2017-12-20T05:08:25.614Z,99.99
2017-12-20T05:09:35.293Z,99.99
2017-12-20T05:10:45.047Z,99.99
2017-12-20T05:11:55.016Z,99.99
2017-12-20T05:13:04.988Z,99.99
2017-12-20T05:14:14.938Z,99.99
2017-12-20T05:15:24.889Z,99.99
2017-12-20T05:16:34.868Z,99.99
2017-12-20T05:17:44.316Z,99.99
2017-12-20T05:18:54.318Z,99.99
2017-12-20T05:20:04.005Z,99.99
2017-12-20T05:21:14.015Z,99.99
2017-12-20T05:22:23.956Z,99.99
2017-12-20T05:23:33.654Z,99.99
2017-12-20T05:24:43.343Z,99.99
2017-12-20T05:25:53.330Z,99.99
2017-12-20T05:27:03.019Z,99.99
2017-12-20T05:28:11.929Z,99.99
2017-12-20T05:29:21.875Z,99.99
2017-12-20T05:30:31.571Z,99.99
2017-12-20T05:31:41.536Z,99.99
2017-12-20T05:32:51.237Z,99.99
2017-12-20T05:34:01.185Z,99.99
2017-12-20T05:35:10.900Z,99.99
2017-12-20T05:36:20.906Z,99.99
2017-12-20T05:37:30.594Z,99.99
2017-12-20T05:38:40.544Z,99.99
2017-12-20T05:39:50.235Z,99.99
2017-12-20T05:40:59.937Z,99.99
2017-12-20T05:42:09.885Z,99.99
2017-12-20T05:43:19.577Z,99.99
2017-12-20T05:44:29.005Z,99.99
2017-12-20T05:45:38.442Z,99.99
2017-12-20T05:46:48.391Z,99.99
2017-12-20T05:47:58.340Z,99.99
2017-12-20T05:49:08.027Z,99.99
2017-12-20T05:50:17.710Z,99.99
2017-12-20T05:51:27.665Z,99.99
2017-12-20T05:52:37.351Z,99.99
2017-12-20T05:53:46.783Z,99.99
2017-12-20T05:54:56.497Z,99.99
2017-12-20T05:56:06.184Z,99.99
2017-12-20T05:57:15.608Z,99.99
2017-12-20T05:58:25.300Z,99.99
2017-12-20T05:59:34.998Z,99.99
2017-12-20T06:00:44.435Z,99.99
2017-12-20T06:01:54.382Z,99.99
2017-12-20T06:03:04.065Z,99.99
2017-12-20T06:04:14.104Z,99.99
2017-12-20T06:05:23.792Z,99.99
2017-12-20T06:06:33.744Z,99.99
2017-12-20T06:07:43.176Z,99.99
2017-12-20T06:08:53.115Z,99.99
2017-12-20T06:10:03.054Z,99.99
2017-12-20T06:11:13.012Z,99.99
2017-12-20T06:12:22.439Z,99.99
2017-12-20T06:13:32.140Z,99.99
2017-12-20T06:14:41.830Z,99.99
2017-12-20T06:15:51.788Z,99.99
2017-12-20T06:17:01.487Z,99.99
2017-12-20T06:18:11.452Z,99.99
2017-12-20T06:19:21.665Z,99.99
2017-12-20T06:20:31.096Z,99.99
2017-12-20T06:21:41.053Z,99.99
2017-12-20T06:22:50.750Z,99.99
2017-12-20T06:24:00.182Z,99.99
2017-12-20T06:25:09.374Z,99.99
2017-12-20T06:26:19.331Z,99.99
2017-12-20T06:27:28.753Z,99.99
2017-12-20T06:28:38.442Z,99.99
2017-12-20T06:29:47.598Z,99.99
2017-12-20T06:30:57.853Z,99.99
2017-12-20T06:32:07.287Z,99.99
2017-12-20T06:33:17.255Z,99.99
2017-12-20T06:34:26.700Z,99.99
2017-12-20T06:35:36.654Z,99.99
2017-12-20T06:36:46.335Z,99.99
2017-12-20T06:37:56.313Z,99.99
2017-12-20T06:39:06.289Z,99.99
2017-12-20T06:40:16.267Z,99.99
2017-12-20T06:41:26.245Z,99.99
2017-12-20T06:42:36.199Z,99.99
2017-12-20T06:43:45.939Z,99.99
2017-12-20T06:44:55.937Z,99.99
2017-12-20T06:46:05.630Z,99.99
2017-12-20T06:47:15.327Z,99.99
2017-12-20T06:48:25.264Z,99.99
2017-12-20T06:49:34.948Z,99.99
2017-12-20T06:50:43.865Z,99.99
2017-12-20T06:51:53.816Z,99.99
2017-12-20T06:53:03.825Z,99.99
2017-12-20T06:54:13.811Z,99.99
2017-12-20T06:55:23.577Z,99.99
2017-12-20T06:56:33.344Z,99.99
2017-12-20T06:57:43.058Z,99.99
2017-12-20T06:58:52.743Z,99.99
2017-12-20T07:00:02.688Z,99.99
2017-12-20T07:01:12.380Z,99.99
2017-12-20T07:02:22.338Z,99.99
2017-12-20T07:03:31.516Z,99.99
2017-12-20T07:04:41.215Z,99.99
2017-12-20T07:05:50.904Z,99.99
2017-12-20T07:07:00.867Z,99.99
2017-12-20T07:08:10.304Z,99.99
2017-12-20T07:09:20.008Z,99.99
2017-12-20T07:10:29.967Z,99.99
2017-12-20T07:11:39.692Z,99.99
2017-12-20T07:12:49.127Z,99.99
2017-12-20T07:13:59.072Z,99.99
2017-12-20T07:15:09.033Z,99.99
2017-12-20T07:16:19.073Z,99.99
2017-12-20T07:17:28.770Z,99.99
2017-12-20T07:18:38.477Z,99.99
2017-12-20T07:19:48.176Z,99.99
2017-12-20T07:20:57.606Z,99.99
2017-12-20T07:22:07.593Z,99.99
2017-12-20T07:23:17.291Z,99.99
2017-12-20T07:24:27.041Z,99.99
2017-12-20T07:25:36.491Z,99.99
2017-12-20T07:26:46.191Z,99.99
2017-12-20T07:27:55.910Z,99.99
2017-12-20T07:29:05.399Z,99.99
2017-12-20T07:30:15.086Z,99.99
2017-12-20T07:31:25.048Z,99.99
2017-12-20T07:32:35.023Z,99.99
2017-12-20T07:33:44.736Z,99.99
2017-12-20T07:34:54.474Z,99.99
2017-12-20T07:36:04.227Z,99.99
2017-12-20T07:37:14.165Z,99.99
2017-12-20T07:38:23.887Z,99.99
2017-12-20T07:39:33.861Z,99.99
2017-12-20T07:40:43.860Z,99.99
2017-12-20T07:41:53.565Z,99.99
2017-12-20T07:43:03.013Z,99.99
2017-12-20T07:44:12.467Z,99.99
2017-12-20T07:45:22.214Z,99.99
2017-12-20T07:46:32.225Z,99.99
2017-12-20T07:47:42.185Z,99.99
2017-12-20T07:48:51.995Z,99.99
2017-12-20T07:50:01.716Z,99.99
2017-12-20T07:51:11.450Z,99.99
2017-12-20T07:52:21.179Z,99.99
2017-12-20T07:53:31.153Z,99.99
2017-12-20T07:54:41.231Z,99.99
2017-12-20T07:55:51.218Z,99.99
2017-12-20T07:57:00.936Z,99.99
2017-12-20T07:58:10.657Z,99.99
2017-12-20T07:59:20.174Z,99.99
2017-12-20T08:00:29.893Z,99.99
2017-12-20T08:01:39.865Z,99.99
2017-12-20T08:02:49.312Z,99.99
2017-12-20T08:03:58.770Z,99.99
2017-12-20T08:05:08.765Z,99.99
2017-12-20T08:06:18.740Z,99.99
2017-12-20T08:07:28.697Z,99.99
2017-12-20T08:08:38.668Z,99.99
2017-12-20T08:09:48.384Z,99.99
2017-12-20T08:10:58.374Z,99.99
2017-12-20T08:12:08.385Z,99.99
2017-12-20T08:13:18.140Z,99.99
2017-12-20T08:14:28.174Z,99.99
2017-12-20T08:15:38.180Z,99.99
2017-12-20T08:16:48.174Z,99.99
2017-12-20T08:17:57.628Z,99.99
2017-12-20T08:19:07.678Z,99.99
2017-12-20T08:20:17.149Z,99.99
2017-12-20T08:21:27.110Z,99.99
2017-12-20T08:22:37.079Z,99.99
2017-12-20T08:23:46.798Z,99.99
2017-12-20T08:24:56.801Z,99.99
2017-12-20T08:26:06.512Z,99.99
2017-12-20T08:27:16.519Z,99.99
2017-12-20T08:28:26.472Z,99.99
2017-12-20T08:29:36.465Z,99.99
2017-12-20T08:30:46.415Z,99.99
2017-12-20T08:31:56.385Z,99.99
2017-12-20T08:33:06.088Z,99.99
2017-12-20T08:34:15.797Z,99.99
2017-12-20T08:35:25.533Z,99.99
2017-12-20T08:36:35.500Z,99.99
2017-12-20T08:37:45.463Z,99.99
2017-12-20T08:38:55.415Z,99.99
2017-12-20T08:40:05.364Z,99.99
2017-12-20T08:41:15.069Z,99.99
2017-12-20T08:42:25.027Z,99.99
2017-12-20T08:43:34.982Z,99.99
2017-12-20T08:44:44.433Z,99.99
2017-12-20T08:45:54.396Z,99.99
2017-12-20T08:47:04.377Z,99.99
2017-12-20T08:48:14.374Z,99.99
2017-12-20T08:49:24.070Z,99.99
2017-12-20T08:50:34.047Z,99.99
2017-12-20T08:51:43.502Z,99.99
2017-12-20T08:52:53.475Z,99.99
2017-12-20T08:54:03.173Z,99.99
2017-12-20T08:55:13.200Z,99.99
2017-12-20T08:56:22.938Z,99.99
2017-12-20T08:57:32.903Z,99.99
2017-12-20T08:58:42.628Z,99.99
2017-12-20T08:59:52.609Z,99.99
2017-12-20T09:01:02.622Z,99.99
2017-12-20T09:02:12.582Z,99.99
2017-12-20T09:03:22.537Z,99.99
2017-12-20T09:04:32.249Z,99.99
2017-12-20T09:05:41.709Z,99.99
2017-12-20T09:06:51.730Z,99.99
2017-12-20T09:08:01.539Z,99.99
2017-12-20T09:09:11.338Z,99.99
2017-12-20T09:10:21.049Z,99.99
2017-12-20T09:11:30.765Z,99.99
2017-12-20T09:12:40.736Z,99.99
2017-12-20T09:13:50.176Z,99.99
2017-12-20T09:15:00.253Z,99.99
2017-12-20T09:16:10.278Z,99.99
2017-12-20T09:17:19.986Z,99.99
2017-12-20T09:18:30.197Z,99.99
2017-12-20T09:19:40.208Z,99.99
2017-12-20T09:20:50.239Z,99.99
2017-12-20T09:21:59.939Z,99.99
2017-12-20T09:23:09.640Z,99.99
2017-12-20T09:24:19.606Z,99.99
2017-12-20T09:25:29.305Z,99.99
2017-12-20T09:26:38.740Z,99.99
2017-12-20T09:27:48.462Z,99.99
2017-12-20T09:28:58.155Z,99.99
2017-12-20T09:30:07.881Z,99.99
2017-12-20T09:31:17.877Z,99.99
2017-12-20T09:32:27.837Z,99.99
2017-12-20T09:33:37.600Z,99.99
2017-12-20T09:34:47.319Z,99.99
2017-12-20T09:35:57.029Z,99.99
2017-12-20T09:37:06.997Z,99.99
2017-12-20T09:38:16.968Z,99.99
2017-12-20T09:39:26.937Z,99.99
2017-12-20T09:40:36.397Z,99.99
2017-12-20T09:41:46.358Z,99.99
2017-12-20T09:42:56.385Z,99.99
2017-12-20T09:44:06.335Z,99.99
2017-12-20T09:45:16.046Z,99.99
2017-12-20T09:46:26.096Z,99.99
2017-12-20T09:47:35.783Z,99.99
2017-12-20T09:48:45.488Z,99.99
2017-12-20T09:49:54.668Z,99.99
2017-12-20T09:51:04.618Z,99.99
2017-12-20T09:52:14.345Z,99.99
2017-12-20T09:53:24.111Z,99.99
2017-12-20T09:54:34.094Z,99.99
2017-12-20T09:55:44.079Z,99.99
2017-12-20T09:56:53.538Z,99.99
2017-12-20T09:58:03.248Z,99.99
2017-12-20T09:59:13.227Z,99.99
2017-12-20T10:00:22.686Z,99.99
2017-12-20T10:01:32.170Z,99.99
2017-12-20T10:02:42.209Z,99.99
2017-12-20T10:03:52.199Z,99.99
2017-12-20T10:05:02.188Z,99.99
2017-12-20T10:06:11.910Z,99.99
2017-12-20T10:07:21.926Z,99.99
2017-12-20T10:08:31.657Z,99.99
2017-12-20T10:09:41.619Z,99.99
2017-12-20T10:10:51.338Z,99.99
2017-12-20T10:12:01.058Z,99.99
2017-12-20T10:13:11.028Z,99.99
2017-12-20T10:14:20.735Z,99.99
2017-12-20T10:15:30.706Z,99.99
2017-12-20T10:16:40.406Z,99.99
2017-12-20T10:17:50.528Z,99.99
2017-12-20T10:19:00.228Z,99.99
2017-12-20T10:20:09.681Z,99.99
2017-12-20T10:21:19.381Z,99.99
2017-12-20T10:22:29.457Z,99.99
2017-12-20T10:23:39.172Z,99.99
2017-12-20T10:24:48.849Z,99.99
2017-12-20T10:25:58.569Z,99.99
2017-12-20T10:27:08.005Z,99.99
2017-12-20T10:28:17.772Z,99.99
2017-12-20T10:29:27.502Z,99.99
2017-12-20T10:30:37.461Z,99.99
2017-12-20T10:31:47.178Z,99.99
2017-12-20T10:32:57.149Z,99.99
2017-12-20T10:34:07.109Z,99.99
2017-12-20T10:35:16.849Z,99.99
2017-12-20T10:36:26.802Z,99.99
2017-12-20T10:37:36.497Z,99.99
2017-12-20T10:38:46.198Z,99.99
2017-12-20T10:39:56.136Z,99.99
2017-12-20T10:41:06.096Z,99.99
2017-12-20T10:42:16.090Z,99.99
2017-12-20T10:43:25.793Z,99.99
2017-12-20T10:44:35.489Z,99.99
2017-12-20T10:45:45.194Z,99.99
2017-12-20T10:46:55.140Z,99.99
2017-12-20T10:48:04.575Z,99.99
2017-12-20T10:49:14.529Z,99.99
2017-12-20T10:50:24.524Z,99.99
2017-12-20T10:51:34.225Z,99.99
2017-12-20T10:52:43.675Z,99.99
2017-12-20T10:53:53.645Z,99.99
2017-12-20T10:55:03.337Z,99.99
2017-12-20T10:56:13.295Z,99.99
2017-12-20T10:57:23.257Z,99.99
2017-12-20T10:58:33.212Z,99.99
2017-12-20T10:59:43.156Z,99.99
2017-12-20T11:00:53.120Z,99.99
2017-12-20T11:02:02.813Z,99.99
2017-12-20T11:03:12.782Z,99.99
2017-12-20T11:04:22.477Z,99.99
2017-12-20T11:05:31.652Z,99.99
2017-12-20T11:06:41.352Z,99.99
2017-12-20T11:07:51.323Z,99.99
2017-12-20T11:09:01.018Z,99.99
2017-12-20T11:10:10.758Z,99.99
2017-12-20T11:11:20.449Z,99.99
2017-12-20T11:12:29.940Z,99.99
2017-12-20T11:13:39.897Z,99.99
2017-12-20T11:14:49.861Z,99.99
2017-12-20T11:15:59.566Z,99.99
2017-12-20T11:17:09.537Z,99.99
2017-12-20T11:18:19.243Z,99.99
2017-12-20T11:19:28.930Z,99.99
2017-12-20T11:20:38.362Z,99.99
2017-12-20T11:21:48.057Z,99.99
2017-12-20T11:22:57.777Z,99.99
2017-12-20T11:24:07.760Z,99.99
2017-12-20T11:25:17.745Z,99.99
2017-12-20T11:26:27.708Z,99.99
2017-12-20T11:27:37.674Z,99.99
2017-12-20T11:28:47.625Z,99.99
2017-12-20T11:29:57.302Z,99.99
2017-12-20T11:31:06.997Z,99.99
2017-12-20T11:32:16.942Z,99.99
2017-12-20T11:33:26.629Z,99.99
2017-12-20T11:34:36.322Z,99.99
2017-12-20T11:35:46.288Z,99.99
2017-12-20T11:36:56.252Z,99.99
2017-12-20T11:38:06.224Z,99.99
2017-12-20T11:39:15.942Z,99.99
2017-12-20T11:40:25.904Z,99.99
2017-12-20T11:41:35.617Z,99.99
2017-12-20T11:42:45.068Z,99.99
2017-12-20T11:43:54.779Z,99.99
2017-12-20T11:45:04.543Z,99.99
2017-12-20T11:46:14.269Z,99.99
2017-12-20T11:47:23.964Z,99.99
2017-12-20T11:48:33.669Z,99.99
2017-12-20T11:49:43.364Z,99.99
2017-12-20T11:50:52.793Z,99.99
2017-12-20T11:52:02.771Z,99.99
2017-12-20T11:53:12.748Z,99.99
2017-12-20T11:54:22.719Z,99.99
2017-12-20T11:55:32.157Z,99.99
2017-12-20T11:56:41.334Z,99.99
2017-12-20T11:57:50.774Z,99.99
2017-12-20T11:59:00.213Z,99.99
2017-12-20T12:00:09.656Z,99.99
2017-12-20T12:01:18.847Z,99.99
2017-12-20T12:02:28.819Z,99.99
2017-12-20T12:03:38.298Z,99.99
2017-12-20T12:04:48.067Z,99.99
2017-12-20T12:05:57.782Z,99.99
2017-12-20T12:07:07.483Z,99.99
2017-12-20T12:08:17.446Z,99.99
2017-12-20T12:09:26.975Z,99.99
2017-12-20T12:10:36.682Z,99.99
2017-12-20T12:11:46.633Z,99.99
2017-12-20T12:12:55.807Z,99.99
2017-12-20T12:14:05.495Z,99.99
2017-12-20T12:15:14.942Z,99.99
2017-12-20T12:16:24.685Z,99.99
2017-12-20T12:17:34.885Z,99.99
2017-12-20T12:18:44.586Z,99.99
2017-12-20T12:19:54.029Z,99.99
2017-12-20T12:21:03.990Z,99.99
2017-12-20T12:22:13.699Z,99.99
2017-12-20T12:23:23.394Z,99.99
2017-12-20T12:24:32.570Z,99.99
2017-12-20T12:25:42.266Z,99.99
2017-12-20T12:26:51.700Z,99.99
2017-12-20T12:28:01.142Z,99.99
2017-12-20T12:29:11.095Z,99.99
2017-12-20T12:30:20.800Z,99.99
2017-12-20T12:31:30.505Z,99.99
2017-12-20T12:32:40.233Z,99.99
2017-12-20T12:33:49.692Z,99.99
2017-12-20T12:34:59.648Z,99.99
2017-12-20T12:36:09.087Z,99.99
2017-12-20T12:37:19.046Z,99.99
2017-12-20T12:38:28.740Z,99.99
2017-12-20T12:39:38.444Z,99.99
2017-12-20T12:40:48.389Z,99.99
2017-12-20T12:41:58.086Z,99.99
2017-12-20T12:43:07.800Z,99.99
2017-12-20T12:44:17.563Z,99.99
2017-12-20T12:45:27.529Z,99.99
2017-12-20T12:46:37.411Z,99.99
2017-12-20T12:47:47.904Z,99.99
2017-12-20T12:48:58.058Z,99.99
2017-12-20T12:50:08.324Z,99.99
2017-12-20T12:51:18.020Z,99.99
2017-12-20T12:52:27.982Z,99.99
2017-12-20T12:53:37.693Z,99.99
2017-12-20T12:54:47.401Z,99.99
2017-12-20T12:55:57.367Z,99.99
2017-12-20T12:57:07.084Z,99.99
2017-12-20T12:58:16.782Z,99.99
2017-12-20T12:59:26.216Z,99.99
2017-12-20T13:00:36.161Z,99.99
2017-12-20T13:01:45.862Z,99.99
2017-12-20T13:02:55.302Z,99.99
2017-12-20T13:04:05.268Z,99.99
2017-12-20T13:05:15.232Z,99.99
2017-12-20T13:06:25.210Z,99.99
2017-12-20T13:07:34.929Z,99.99
2017-12-20T13:08:44.888Z,99.99
2017-12-20T13:09:54.603Z,99.99
2017-12-20T13:11:04.296Z,99.99
2017-12-20T13:12:14.009Z,99.99
2017-12-20T13:13:23.770Z,99.99
2017-12-20T13:14:33.738Z,99.99
2017-12-20T13:15:43.697Z,99.99
2017-12-20T13:16:53.424Z,99.99
2017-12-20T13:18:03.383Z,99.99
2017-12-20T13:19:13.349Z,99.99
2017-12-20T13:20:23.327Z,99.99
2017-12-20T13:21:33.306Z,99.99
2017-12-20T13:22:43.013Z,99.99
2017-12-20T13:23:52.982Z,99.99
2017-12-20T13:25:02.173Z,99.99
2017-12-20T13:26:11.874Z,99.99
2017-12-20T13:27:21.575Z,99.99
2017-12-20T13:28:31.538Z,99.99
2017-12-20T13:29:41.513Z,99.99
2017-12-20T13:30:51.474Z,99.99
2017-12-20T13:32:00.911Z,99.99
2017-12-20T13:33:10.849Z,99.99
2017-12-20T13:34:20.296Z,99.99
2017-12-20T13:35:30.260Z,99.99
2017-12-20T13:36:39.434Z,99.99
2017-12-20T13:37:49.398Z,99.99
2017-12-20T13:38:59.357Z,99.99
2017-12-20T13:40:09.310Z,99.99
2017-12-20T13:41:19.331Z,99.99
2017-12-20T13:42:29.343Z,99.99
2017-12-20T13:43:39.297Z,99.99
2017-12-20T13:44:48.990Z,99.99
2017-12-20T13:45:58.170Z,99.99
2017-12-20T13:47:07.862Z,99.99
2017-12-20T13:48:17.822Z,99.99
2017-12-20T13:49:27.278Z,99.99
2017-12-20T13:50:37.237Z,99.99
2017-12-20T13:51:46.951Z,99.99
2017-12-20T13:52:56.637Z,99.99
2017-12-20T13:54:06.340Z,99.99
2017-12-20T13:55:16.064Z,99.99
2017-12-20T13:56:26.028Z,99.99
2017-12-20T13:57:35.989Z,99.99
2017-12-20T13:58:45.676Z,99.86
2017-12-20T13:59:55.369Z,99.99
2017-12-20T14:01:05.321Z,99.99
2017-12-20T14:02:15.268Z,99.96
2017-12-20T14:03:24.963Z,99.86
2017-12-20T14:04:34.398Z,99.99
2017-12-20T14:05:44.105Z,99.99
2017-12-20T14:06:53.540Z,99.1
2017-12-20T14:08:03.495Z,99.77
2017-12-20T14:09:13.194Z,99.77
2017-12-20T14:10:22.885Z,99.96
2017-12-20T14:11:32.330Z,99.77
2017-12-20T14:12:41.512Z,99.99
2017-12-20T14:13:51.491Z,99.99
2017-12-20T14:15:01.209Z,99.99
2017-12-20T14:16:10.649Z,99.99
2017-12-20T14:17:20.343Z,99.58
2017-12-20T14:18:29.781Z,99.48
2017-12-20T14:19:39.744Z,99.58
2017-12-20T14:20:49.431Z,99.29
2017-12-20T14:21:59.396Z,99.58
2017-12-20T14:23:09.100Z,99.58
2017-12-20T14:24:19.091Z,99.67
2017-12-20T14:25:29.092Z,99.2
2017-12-20T14:26:38.780Z,99.58
2017-12-20T14:27:48.217Z,99.58
2017-12-20T14:28:58.169Z,99.58
2017-12-20T14:30:08.130Z,99.58
2017-12-20T14:31:17.828Z,99.2
2017-12-20T14:32:27.514Z,99.39
2017-12-20T14:33:37.473Z,99.39
2017-12-20T14:34:46.903Z,99.39
2017-12-20T14:35:56.350Z,99.1
2017-12-20T14:37:06.306Z,98.91
2017-12-20T14:38:16.029Z,98.44
2017-12-20T14:39:25.743Z,98.54
2017-12-20T14:40:35.964Z,98.25
2017-12-20T14:41:45.926Z,98.54
2017-12-20T14:42:55.623Z,98.06
2017-12-20T14:44:05.646Z,98.44
2017-12-20T14:45:15.375Z,97.21
2017-12-20T14:46:24.808Z,97.3
2017-12-20T14:47:34.752Z,97.02
2017-12-20T14:48:44.709Z,96.64
2017-12-20T14:49:53.635Z,96.69
2017-12-20T14:51:03.059Z,96.26
2017-12-20T14:52:13.023Z,96.45
2017-12-20T14:53:22.964Z,96.55
2017-12-20T14:54:32.931Z,96.31
2017-12-20T14:55:42.875Z,96.4
2017-12-20T14:56:52.831Z,96.17
2017-12-20T14:58:02.794Z,96.36